sensor_id;sensor_type;location;lat;lon;timestamp;P1;durP1;ratioP1;P2;durP2;ratioP2
18574;SDS011;9417;16.484;102.872;2023-04-03T00:01:21;36.22;;;24.15;;
18574;SDS011;9417;16.484;102.872;2023-04-03T00:03:29;37.60;;;24.83;;
18574;SDS011;9417;16.484;102.872;2023-04-03T00:05:36;33.25;;;23.88;;
18574;SDS011;9417;16.484;102.872;2023-04-03T00:08:01;36.10;;;24.63;;
18574;SDS011;9417;16.484;102.872;2023-04-03T00:10:11;30.67;;;23.13;;
18574;SDS011;9417;16.484;102.872;2023-04-03T00:12:19;36.60;;;25.15;;
18574;SDS011;9417;16.484;102.872;2023-04-03T00:14:27;30.98;;;23.52;;
18574;SDS011;9417;16.484;102.872;2023-04-03T00:16:35;36.38;;;23.45;;
18574;SDS011;9417;16.484;102.872;2023-04-03T00:18:43;33.75;;;23.30;;
18574;SDS011;9417;16.484;102.872;2023-04-03T00:20:50;31.75;;;23.10;;
18574;SDS011;9417;16.484;102.872;2023-04-03T00:22:57;30.30;;;22.50;;
18574;SDS011;9417;16.484;102.872;2023-04-03T00:25:07;35.67;;;23.38;;
18574;SDS011;9417;16.484;102.872;2023-04-03T00:27:15;38.78;;;23.73;;
18574;SDS011;9417;16.484;102.872;2023-04-03T00:29:22;38.20;;;26.05;;
18574;SDS011;9417;16.484;102.872;2023-04-03T00:31:48;29.88;;;21.45;;
18574;SDS011;9417;16.484;102.872;2023-04-03T00:33:55;31.42;;;23.27;;
18574;SDS011;9417;16.484;102.872;2023-04-03T00:36:13;31.45;;;20.15;;
18574;SDS011;9417;16.484;102.872;2023-04-03T00:38:21;31.23;;;21.95;;
18574;SDS011;9417;16.484;102.872;2023-04-03T00:40:33;31.20;;;21.63;;
18574;SDS011;9417;16.484;102.872;2023-04-03T00:42:42;31.25;;;22.25;;
18574;SDS011;9417;16.484;102.872;2023-04-03T00:47:34;28.92;;;21.42;;
18574;SDS011;9417;16.484;102.872;2023-04-03T00:49:41;28.83;;;21.95;;
18574;SDS011;9417;16.484;102.872;2023-04-03T00:51:50;30.48;;;23.55;;
18574;SDS011;9417;16.484;102.872;2023-04-03T00:53:58;35.53;;;23.10;;
18574;SDS011;9417;16.484;102.872;2023-04-03T00:56:10;34.35;;;22.58;;
18574;SDS011;9417;16.484;102.872;2023-04-03T00:58:20;30.67;;;22.25;;
18574;SDS011;9417;16.484;102.872;2023-04-03T01:00:32;33.63;;;22.00;;
18574;SDS011;9417;16.484;102.872;2023-04-03T01:02:42;30.25;;;23.33;;
18574;SDS011;9417;16.484;102.872;2023-04-03T01:04:50;31.17;;;21.75;;
18574;SDS011;9417;16.484;102.872;2023-04-03T01:06:58;31.13;;;22.30;;
18574;SDS011;9417;16.484;102.872;2023-04-03T01:09:10;32.35;;;23.38;;
18574;SDS011;9417;16.484;102.872;2023-04-03T01:11:18;36.78;;;23.08;;
18574;SDS011;9417;16.484;102.872;2023-04-03T01:13:28;32.83;;;22.90;;
18574;SDS011;9417;16.484;102.872;2023-04-03T01:15:38;32.77;;;24.87;;
18574;SDS011;9417;16.484;102.872;2023-04-03T01:17:46;34.05;;;24.17;;
18574;SDS011;9417;16.484;102.872;2023-04-03T01:19:57;35.17;;;25.48;;
18574;SDS011;9417;16.484;102.872;2023-04-03T01:22:35;31.98;;;23.52;;
18574;SDS011;9417;16.484;102.872;2023-04-03T01:24:52;33.00;;;24.40;;
18574;SDS011;9417;16.484;102.872;2023-04-03T01:27:04;32.90;;;24.42;;
18574;SDS011;9417;16.484;102.872;2023-04-03T01:29:12;33.30;;;23.63;;
18574;SDS011;9417;16.484;102.872;2023-04-03T01:31:20;35.70;;;24.60;;
18574;SDS011;9417;16.484;102.872;2023-04-03T01:33:33;31.70;;;23.67;;
18574;SDS011;9417;16.484;102.872;2023-04-03T01:35:40;33.38;;;25.23;;
18574;SDS011;9417;16.484;102.872;2023-04-03T01:37:47;35.90;;;24.92;;
18574;SDS011;9417;16.484;102.872;2023-04-03T01:39:54;31.67;;;25.15;;
18574;SDS011;9417;16.484;102.872;2023-04-03T01:42:02;33.85;;;25.10;;
18574;SDS011;9417;16.484;102.872;2023-04-03T01:44:14;32.90;;;24.80;;
18574;SDS011;9417;16.484;102.872;2023-04-03T01:46:21;30.15;;;23.73;;
18574;SDS011;9417;16.484;102.872;2023-04-03T01:48:28;36.30;;;25.63;;
18574;SDS011;9417;16.484;102.872;2023-04-03T01:50:37;35.03;;;26.63;;
18574;SDS011;9417;16.484;102.872;2023-04-03T01:52:44;38.50;;;25.60;;
18574;SDS011;9417;16.484;102.872;2023-04-03T01:54:51;36.85;;;26.48;;
18574;SDS011;9417;16.484;102.872;2023-04-03T01:56:59;34.85;;;25.77;;
18574;SDS011;9417;16.484;102.872;2023-04-03T01:59:06;35.13;;;26.45;;
18574;SDS011;9417;16.484;102.872;2023-04-03T02:01:14;36.05;;;26.25;;
18574;SDS011;9417;16.484;102.872;2023-04-03T02:03:21;40.00;;;25.75;;
18574;SDS011;9417;16.484;102.872;2023-04-03T02:05:28;37.08;;;26.33;;
18574;SDS011;9417;16.484;102.872;2023-04-03T02:07:37;36.83;;;27.02;;
18574;SDS011;9417;16.484;102.872;2023-04-03T02:09:45;34.33;;;25.83;;
18574;SDS011;9417;16.484;102.872;2023-04-03T02:11:52;35.78;;;25.90;;
18574;SDS011;9417;16.484;102.872;2023-04-03T02:13:59;33.53;;;25.02;;
18574;SDS011;9417;16.484;102.872;2023-04-03T02:16:07;39.83;;;27.13;;
18574;SDS011;9417;16.484;102.872;2023-04-03T02:18:16;35.05;;;25.65;;
18574;SDS011;9417;16.484;102.872;2023-04-03T02:20:24;37.08;;;26.30;;
18574;SDS011;9417;16.484;102.872;2023-04-03T02:22:31;37.20;;;25.83;;
18574;SDS011;9417;16.484;102.872;2023-04-03T02:24:40;39.55;;;26.55;;
18574;SDS011;9417;16.484;102.872;2023-04-03T02:26:48;38.22;;;27.27;;
18574;SDS011;9417;16.484;102.872;2023-04-03T02:28:55;34.85;;;26.20;;
18574;SDS011;9417;16.484;102.872;2023-04-03T02:31:03;35.38;;;26.17;;
18574;SDS011;9417;16.484;102.872;2023-04-03T02:33:12;35.00;;;25.80;;
18574;SDS011;9417;16.484;102.872;2023-04-03T02:35:19;37.22;;;26.45;;
18574;SDS011;9417;16.484;102.872;2023-04-03T02:37:29;31.38;;;24.10;;
18574;SDS011;9417;16.484;102.872;2023-04-03T02:39:36;32.30;;;24.90;;
18574;SDS011;9417;16.484;102.872;2023-04-03T02:41:45;34.88;;;27.20;;
18574;SDS011;9417;16.484;102.872;2023-04-03T02:43:58;31.42;;;25.55;;
18574;SDS011;9417;16.484;102.872;2023-04-03T02:46:06;33.92;;;26.00;;
18574;SDS011;9417;16.484;102.872;2023-04-03T02:48:14;34.70;;;25.70;;
18574;SDS011;9417;16.484;102.872;2023-04-03T02:50:22;36.25;;;26.38;;
18574;SDS011;9417;16.484;102.872;2023-04-03T02:52:29;36.08;;;26.33;;
18574;SDS011;9417;16.484;102.872;2023-04-03T02:54:36;36.65;;;26.05;;
18574;SDS011;9417;16.484;102.872;2023-04-03T02:56:46;36.88;;;27.27;;
18574;SDS011;9417;16.484;102.872;2023-04-03T02:58:54;39.22;;;26.85;;
18574;SDS011;9417;16.484;102.872;2023-04-03T03:01:01;34.58;;;26.95;;
18574;SDS011;9417;16.484;102.872;2023-04-03T03:03:09;35.30;;;25.20;;
18574;SDS011;9417;16.484;102.872;2023-04-03T03:05:17;35.58;;;25.17;;
18574;SDS011;9417;16.484;102.872;2023-04-03T03:07:25;35.90;;;26.10;;
18574;SDS011;9417;16.484;102.872;2023-04-03T03:09:32;35.97;;;26.10;;
18574;SDS011;9417;16.484;102.872;2023-04-03T03:11:39;40.00;;;26.30;;
18574;SDS011;9417;16.484;102.872;2023-04-03T03:13:48;36.58;;;25.88;;
18574;SDS011;9417;16.484;102.872;2023-04-03T03:15:55;35.08;;;25.30;;
18574;SDS011;9417;16.484;102.872;2023-04-03T03:18:04;36.42;;;26.30;;
18574;SDS011;9417;16.484;102.872;2023-04-03T03:20:11;33.50;;;25.67;;
18574;SDS011;9417;16.484;102.872;2023-04-03T03:22:20;32.92;;;25.50;;
18574;SDS011;9417;16.484;102.872;2023-04-03T03:24:27;30.65;;;24.45;;
18574;SDS011;9417;16.484;102.872;2023-04-03T03:26:35;34.80;;;25.67;;
18574;SDS011;9417;16.484;102.872;2023-04-03T03:28:42;32.25;;;24.90;;
18574;SDS011;9417;16.484;102.872;2023-04-03T03:30:51;35.88;;;25.90;;
18574;SDS011;9417;16.484;102.872;2023-04-03T03:32:59;32.58;;;24.38;;
18574;SDS011;9417;16.484;102.872;2023-04-03T03:35:07;32.55;;;25.23;;
18574;SDS011;9417;16.484;102.872;2023-04-03T03:37:15;35.05;;;26.20;;
18574;SDS011;9417;16.484;102.872;2023-04-03T03:39:22;33.53;;;25.58;;
18574;SDS011;9417;16.484;102.872;2023-04-03T03:41:30;34.35;;;25.48;;
18574;SDS011;9417;16.484;102.872;2023-04-03T03:43:38;33.28;;;25.35;;
18574;SDS011;9417;16.484;102.872;2023-04-03T03:45:51;32.50;;;23.13;;
18574;SDS011;9417;16.484;102.872;2023-04-03T03:48:01;35.53;;;24.70;;
18574;SDS011;9417;16.484;102.872;2023-04-03T03:50:08;31.33;;;25.75;;
18574;SDS011;9417;16.484;102.872;2023-04-03T03:52:16;33.13;;;25.65;;
18574;SDS011;9417;16.484;102.872;2023-04-03T03:54:23;33.67;;;24.95;;
18574;SDS011;9417;16.484;102.872;2023-04-03T03:56:31;31.73;;;24.45;;
18574;SDS011;9417;16.484;102.872;2023-04-03T03:58:38;34.63;;;25.52;;
18574;SDS011;9417;16.484;102.872;2023-04-03T04:00:45;30.77;;;23.77;;
18574;SDS011;9417;16.484;102.872;2023-04-03T04:02:55;31.83;;;23.23;;
18574;SDS011;9417;16.484;102.872;2023-04-03T04:05:04;30.77;;;22.88;;
18574;SDS011;9417;16.484;102.872;2023-04-03T04:07:12;30.25;;;22.65;;
18574;SDS011;9417;16.484;102.872;2023-04-03T04:09:19;30.95;;;22.83;;
18574;SDS011;9417;16.484;102.872;2023-04-03T04:11:26;31.23;;;23.63;;
18574;SDS011;9417;16.484;102.872;2023-04-03T04:13:34;32.40;;;24.30;;
18574;SDS011;9417;16.484;102.872;2023-04-03T04:15:42;27.83;;;22.85;;
18574;SDS011;9417;16.484;102.872;2023-04-03T04:17:50;33.08;;;23.70;;
18574;SDS011;9417;16.484;102.872;2023-04-03T04:19:59;30.20;;;23.27;;
18574;SDS011;9417;16.484;102.872;2023-04-03T04:22:08;29.40;;;23.13;;
18574;SDS011;9417;16.484;102.872;2023-04-03T04:24:15;30.60;;;24.00;;
18574;SDS011;9417;16.484;102.872;2023-04-03T04:26:24;28.95;;;22.48;;
18574;SDS011;9417;16.484;102.872;2023-04-03T04:28:32;28.90;;;22.23;;
18574;SDS011;9417;16.484;102.872;2023-04-03T04:30:40;29.58;;;22.58;;
18574;SDS011;9417;16.484;102.872;2023-04-03T04:32:49;31.13;;;22.23;;
18574;SDS011;9417;16.484;102.872;2023-04-03T04:34:56;31.35;;;22.98;;
18574;SDS011;9417;16.484;102.872;2023-04-03T04:37:07;30.02;;;22.52;;
18574;SDS011;9417;16.484;102.872;2023-04-03T04:39:14;32.38;;;23.45;;
18574;SDS011;9417;16.484;102.872;2023-04-03T04:41:22;26.48;;;21.63;;
18574;SDS011;9417;16.484;102.872;2023-04-03T04:43:29;26.10;;;21.95;;
18574;SDS011;9417;16.484;102.872;2023-04-03T04:45:37;28.67;;;22.90;;
18574;SDS011;9417;16.484;102.872;2023-04-03T04:47:44;29.35;;;22.52;;
18574;SDS011;9417;16.484;102.872;2023-04-03T04:49:51;28.10;;;22.15;;
18574;SDS011;9417;16.484;102.872;2023-04-03T04:52:00;28.90;;;22.65;;
18574;SDS011;9417;16.484;102.872;2023-04-03T04:54:08;27.30;;;21.80;;
18574;SDS011;9417;16.484;102.872;2023-04-03T04:56:16;28.02;;;22.65;;
18574;SDS011;9417;16.484;102.872;2023-04-03T04:58:24;27.85;;;22.70;;
18574;SDS011;9417;16.484;102.872;2023-04-03T05:00:31;27.27;;;22.45;;
18574;SDS011;9417;16.484;102.872;2023-04-03T05:02:38;30.33;;;22.85;;
18574;SDS011;9417;16.484;102.872;2023-04-03T05:04:46;32.05;;;22.45;;
18574;SDS011;9417;16.484;102.872;2023-04-03T05:07:02;26.85;;;21.77;;
18574;SDS011;9417;16.484;102.872;2023-04-03T05:09:11;29.20;;;22.02;;
18574;SDS011;9417;16.484;102.872;2023-04-03T05:11:19;27.35;;;22.23;;
18574;SDS011;9417;16.484;102.872;2023-04-03T05:13:27;27.50;;;22.02;;
18574;SDS011;9417;16.484;102.872;2023-04-03T05:15:34;27.55;;;22.38;;
18574;SDS011;9417;16.484;102.872;2023-04-03T05:17:42;26.58;;;21.17;;
18574;SDS011;9417;16.484;102.872;2023-04-03T05:19:50;26.27;;;20.65;;
18574;SDS011;9417;16.484;102.872;2023-04-03T05:22:00;29.75;;;21.70;;
18574;SDS011;9417;16.484;102.872;2023-04-03T05:24:10;26.45;;;21.33;;
18574;SDS011;9417;16.484;102.872;2023-04-03T05:26:18;26.98;;;21.25;;
18574;SDS011;9417;16.484;102.872;2023-04-03T05:28:25;25.63;;;20.45;;
18574;SDS011;9417;16.484;102.872;2023-04-03T05:30:32;25.42;;;21.17;;
18574;SDS011;9417;16.484;102.872;2023-04-03T05:32:40;26.02;;;21.58;;
18574;SDS011;9417;16.484;102.872;2023-04-03T05:35:00;25.27;;;21.63;;
18574;SDS011;9417;16.484;102.872;2023-04-03T05:37:09;26.92;;;20.40;;
18574;SDS011;9417;16.484;102.872;2023-04-03T05:39:17;26.63;;;20.05;;
18574;SDS011;9417;16.484;102.872;2023-04-03T05:41:24;23.88;;;19.98;;
18574;SDS011;9417;16.484;102.872;2023-04-03T05:43:31;28.17;;;21.35;;
18574;SDS011;9417;16.484;102.872;2023-04-03T05:45:43;26.85;;;20.55;;
18574;SDS011;9417;16.484;102.872;2023-04-03T05:47:53;25.05;;;21.17;;
18574;SDS011;9417;16.484;102.872;2023-04-03T05:50:01;26.67;;;21.05;;
18574;SDS011;9417;16.484;102.872;2023-04-03T05:52:12;24.33;;;20.15;;
18574;SDS011;9417;16.484;102.872;2023-04-03T05:54:27;26.65;;;20.83;;
18574;SDS011;9417;16.484;102.872;2023-04-03T05:56:48;24.30;;;20.80;;
18574;SDS011;9417;16.484;102.872;2023-04-03T05:58:56;26.25;;;20.92;;
18574;SDS011;9417;16.484;102.872;2023-04-03T06:01:04;25.48;;;22.30;;
18574;SDS011;9417;16.484;102.872;2023-04-03T06:03:11;30.20;;;21.98;;
18574;SDS011;9417;16.484;102.872;2023-04-03T06:05:19;26.02;;;22.08;;
18574;SDS011;9417;16.484;102.872;2023-04-03T06:07:28;28.05;;;22.08;;
18574;SDS011;9417;16.484;102.872;2023-04-03T06:09:36;25.30;;;21.17;;
18574;SDS011;9417;16.484;102.872;2023-04-03T06:11:43;28.92;;;22.77;;
18574;SDS011;9417;16.484;102.872;2023-04-03T06:13:51;29.02;;;22.63;;
18574;SDS011;9417;16.484;102.872;2023-04-03T06:15:59;27.67;;;21.95;;
18574;SDS011;9417;16.484;102.872;2023-04-03T06:18:07;26.38;;;21.38;;
18574;SDS011;9417;16.484;102.872;2023-04-03T06:20:16;27.20;;;21.80;;
18574;SDS011;9417;16.484;102.872;2023-04-03T06:22:24;26.13;;;21.40;;
18574;SDS011;9417;16.484;102.872;2023-04-03T06:24:35;26.92;;;21.35;;
18574;SDS011;9417;16.484;102.872;2023-04-03T06:26:42;28.25;;;23.65;;
18574;SDS011;9417;16.484;102.872;2023-04-03T06:28:50;26.92;;;22.27;;
18574;SDS011;9417;16.484;102.872;2023-04-03T06:30:57;29.10;;;21.40;;
18574;SDS011;9417;16.484;102.872;2023-04-03T06:33:05;33.65;;;22.65;;
18574;SDS011;9417;16.484;102.872;2023-04-03T06:35:12;29.52;;;23.58;;
18574;SDS011;9417;16.484;102.872;2023-04-03T06:37:20;28.05;;;22.48;;
18574;SDS011;9417;16.484;102.872;2023-04-03T06:39:29;28.48;;;23.23;;
18574;SDS011;9417;16.484;102.872;2023-04-03T06:41:38;31.23;;;23.15;;
18574;SDS011;9417;16.484;102.872;2023-04-03T06:43:45;29.55;;;23.77;;
18574;SDS011;9417;16.484;102.872;2023-04-03T06:45:52;26.30;;;22.35;;
18574;SDS011;9417;16.484;102.872;2023-04-03T06:48:00;25.60;;;22.48;;
18574;SDS011;9417;16.484;102.872;2023-04-03T06:50:08;24.65;;;20.65;;
18574;SDS011;9417;16.484;102.872;2023-04-03T06:52:17;25.48;;;19.83;;
18574;SDS011;9417;16.484;102.872;2023-04-03T06:54:25;25.75;;;21.70;;
18574;SDS011;9417;16.484;102.872;2023-04-03T06:56:32;34.17;;;23.92;;
18574;SDS011;9417;16.484;102.872;2023-04-03T06:58:42;26.02;;;21.67;;
18574;SDS011;9417;16.484;102.872;2023-04-03T07:00:50;27.95;;;21.52;;
18574;SDS011;9417;16.484;102.872;2023-04-03T07:02:57;22.60;;;19.48;;
18574;SDS011;9417;16.484;102.872;2023-04-03T07:05:04;24.02;;;21.42;;
18574;SDS011;9417;16.484;102.872;2023-04-03T07:07:12;25.10;;;19.13;;
18574;SDS011;9417;16.484;102.872;2023-04-03T07:09:21;25.05;;;19.30;;
18574;SDS011;9417;16.484;102.872;2023-04-03T07:11:28;23.65;;;19.13;;
18574;SDS011;9417;16.484;102.872;2023-04-03T07:13:36;27.20;;;20.48;;
18574;SDS011;9417;16.484;102.872;2023-04-03T07:15:45;25.35;;;20.10;;
18574;SDS011;9417;16.484;102.872;2023-04-03T07:17:52;27.58;;;21.30;;
18574;SDS011;9417;16.484;102.872;2023-04-03T07:19:59;26.48;;;22.40;;
18574;SDS011;9417;16.484;102.872;2023-04-03T07:22:19;26.95;;;21.17;;
18574;SDS011;9417;16.484;102.872;2023-04-03T07:24:26;26.85;;;21.33;;
18574;SDS011;9417;16.484;102.872;2023-04-03T07:26:33;26.42;;;21.98;;
18574;SDS011;9417;16.484;102.872;2023-04-03T07:28:40;26.30;;;21.65;;
18574;SDS011;9417;16.484;102.872;2023-04-03T07:30:50;24.65;;;21.00;;
18574;SDS011;9417;16.484;102.872;2023-04-03T07:32:58;28.70;;;21.27;;
18574;SDS011;9417;16.484;102.872;2023-04-03T07:35:06;25.73;;;21.55;;
18574;SDS011;9417;16.484;102.872;2023-04-03T07:37:13;25.13;;;21.33;;
18574;SDS011;9417;16.484;102.872;2023-04-03T07:39:21;28.52;;;21.58;;
18574;SDS011;9417;16.484;102.872;2023-04-03T07:41:28;25.58;;;20.23;;
18574;SDS011;9417;16.484;102.872;2023-04-03T07:43:35;24.30;;;21.10;;
18574;SDS011;9417;16.484;102.872;2023-04-03T07:45:42;29.40;;;21.60;;
18574;SDS011;9417;16.484;102.872;2023-04-03T07:47:52;24.30;;;20.88;;
18574;SDS011;9417;16.484;102.872;2023-04-03T07:50:00;25.30;;;20.55;;
18574;SDS011;9417;16.484;102.872;2023-04-03T07:52:07;22.55;;;20.08;;
18574;SDS011;9417;16.484;102.872;2023-04-03T07:54:14;26.25;;;19.73;;
18574;SDS011;9417;16.484;102.872;2023-04-03T07:56:21;25.95;;;21.42;;
18574;SDS011;9417;16.484;102.872;2023-04-03T07:58:28;25.63;;;21.50;;
18574;SDS011;9417;16.484;102.872;2023-04-03T08:00:36;25.42;;;20.92;;
18574;SDS011;9417;16.484;102.872;2023-04-03T08:02:48;24.63;;;20.67;;
18574;SDS011;9417;16.484;102.872;2023-04-03T08:04:58;29.75;;;21.63;;
18574;SDS011;9417;16.484;102.872;2023-04-03T08:07:05;27.73;;;22.92;;
18574;SDS011;9417;16.484;102.872;2023-04-03T08:09:13;26.15;;;21.60;;
18574;SDS011;9417;16.484;102.872;2023-04-03T08:11:21;28.55;;;23.35;;
18574;SDS011;9417;16.484;102.872;2023-04-03T08:13:30;27.85;;;23.08;;
18574;SDS011;9417;16.484;102.872;2023-04-03T08:15:38;27.83;;;21.58;;
18574;SDS011;9417;16.484;102.872;2023-04-03T08:17:45;29.65;;;23.15;;
18574;SDS011;9417;16.484;102.872;2023-04-03T08:19:54;28.13;;;23.52;;
18574;SDS011;9417;16.484;102.872;2023-04-03T08:22:01;28.52;;;24.15;;
18574;SDS011;9417;16.484;102.872;2023-04-03T08:24:09;28.38;;;23.15;;
18574;SDS011;9417;16.484;102.872;2023-04-03T08:26:16;30.15;;;22.55;;
18574;SDS011;9417;16.484;102.872;2023-04-03T08:28:25;28.55;;;23.38;;
18574;SDS011;9417;16.484;102.872;2023-04-03T08:30:33;29.27;;;23.60;;
18574;SDS011;9417;16.484;102.872;2023-04-03T08:32:41;35.97;;;27.83;;
18574;SDS011;9417;16.484;102.872;2023-04-03T08:34:49;32.13;;;25.30;;
18574;SDS011;9417;16.484;102.872;2023-04-03T08:36:58;33.47;;;23.58;;
18574;SDS011;9417;16.484;102.872;2023-04-03T08:39:05;27.38;;;23.42;;
18574;SDS011;9417;16.484;102.872;2023-04-03T08:41:14;27.98;;;23.08;;
18574;SDS011;9417;16.484;102.872;2023-04-03T08:43:27;32.13;;;22.35;;
18574;SDS011;9417;16.484;102.872;2023-04-03T08:45:42;28.10;;;22.27;;
18574;SDS011;9417;16.484;102.872;2023-04-03T08:47:52;19.98;;;17.13;;
18574;SDS011;9417;16.484;102.872;2023-04-03T08:50:06;20.45;;;16.02;;
18574;SDS011;9417;16.484;102.872;2023-04-03T08:54:28;19.60;;;16.13;;
18574;SDS011;9417;16.484;102.872;2023-04-03T08:56:38;23.48;;;17.15;;
18574;SDS011;9417;16.484;102.872;2023-04-03T08:58:47;24.67;;;18.17;;
18574;SDS011;9417;16.484;102.872;2023-04-03T09:00:57;26.70;;;18.52;;
18574;SDS011;9417;16.484;102.872;2023-04-03T09:03:10;23.88;;;18.58;;
18574;SDS011;9417;16.484;102.872;2023-04-03T09:05:20;23.05;;;18.55;;
18574;SDS011;9417;16.484;102.872;2023-04-03T09:07:39;23.75;;;18.10;;
18574;SDS011;9417;16.484;102.872;2023-04-03T09:09:51;25.45;;;18.33;;
18574;SDS011;9417;16.484;102.872;2023-04-03T09:12:02;23.85;;;18.15;;
18574;SDS011;9417;16.484;102.872;2023-04-03T09:14:21;25.88;;;18.83;;
18574;SDS011;9417;16.484;102.872;2023-04-03T09:16:37;23.10;;;17.65;;
18574;SDS011;9417;16.484;102.872;2023-04-03T09:18:50;23.05;;;17.38;;
18574;SDS011;9417;16.484;102.872;2023-04-03T09:21:07;24.45;;;18.05;;
18574;SDS011;9417;16.484;102.872;2023-04-03T09:23:22;23.27;;;17.85;;
18574;SDS011;9417;16.484;102.872;2023-04-03T09:25:34;21.65;;;17.70;;
18574;SDS011;9417;16.484;102.872;2023-04-03T09:27:43;25.55;;;18.83;;
18574;SDS011;9417;16.484;102.872;2023-04-03T09:29:52;23.20;;;19.38;;
18574;SDS011;9417;16.484;102.872;2023-04-03T09:32:01;23.73;;;18.92;;
18574;SDS011;9417;16.484;102.872;2023-04-03T09:34:20;26.67;;;19.80;;
18574;SDS011;9417;16.484;102.872;2023-04-03T09:36:42;23.90;;;18.65;;
18574;SDS011;9417;16.484;102.872;2023-04-03T09:39:04;20.57;;;16.27;;
18574;SDS011;9417;16.484;102.872;2023-04-03T09:41:16;21.30;;;17.30;;
18574;SDS011;9417;16.484;102.872;2023-04-03T09:43:25;21.38;;;16.25;;
18574;SDS011;9417;16.484;102.872;2023-04-03T09:45:34;21.17;;;17.25;;
18574;SDS011;9417;16.484;102.872;2023-04-03T09:47:42;23.30;;;17.83;;
18574;SDS011;9417;16.484;102.872;2023-04-03T09:49:49;25.35;;;18.10;;
18574;SDS011;9417;16.484;102.872;2023-04-03T09:51:56;25.70;;;18.25;;
18574;SDS011;9417;16.484;102.872;2023-04-03T09:56:36;27.35;;;21.73;;
18574;SDS011;9417;16.484;102.872;2023-04-03T09:58:44;27.65;;;22.45;;
18574;SDS011;9417;16.484;102.872;2023-04-03T10:00:57;27.65;;;22.23;;
18574;SDS011;9417;16.484;102.872;2023-04-03T10:03:06;29.73;;;23.95;;
18574;SDS011;9417;16.484;102.872;2023-04-03T10:05:33;26.75;;;19.88;;
18574;SDS011;9417;16.484;102.872;2023-04-03T10:07:42;29.73;;;20.65;;
18574;SDS011;9417;16.484;102.872;2023-04-03T10:10:17;28.13;;;21.63;;
18574;SDS011;9417;16.484;102.872;2023-04-03T10:12:27;27.45;;;21.88;;
18574;SDS011;9417;16.484;102.872;2023-04-03T10:14:35;28.55;;;21.90;;
18574;SDS011;9417;16.484;102.872;2023-04-03T10:16:45;29.08;;;21.52;;
18574;SDS011;9417;16.484;102.872;2023-04-03T10:19:02;27.38;;;21.30;;
18574;SDS011;9417;16.484;102.872;2023-04-03T10:21:20;26.25;;;20.65;;
18574;SDS011;9417;16.484;102.872;2023-04-03T10:23:38;27.58;;;20.17;;
18574;SDS011;9417;16.484;102.872;2023-04-03T10:25:54;27.30;;;20.55;;
18574;SDS011;9417;16.484;102.872;2023-04-03T10:28:08;29.70;;;21.95;;
18574;SDS011;9417;16.484;102.872;2023-04-03T10:30:29;29.50;;;21.23;;
18574;SDS011;9417;16.484;102.872;2023-04-03T10:32:45;24.98;;;20.45;;
18574;SDS011;9417;16.484;102.872;2023-04-03T10:35:02;29.40;;;21.90;;
18574;SDS011;9417;16.484;102.872;2023-04-03T10:37:19;26.63;;;20.10;;
18574;SDS011;9417;16.484;102.872;2023-04-03T10:39:33;25.25;;;20.15;;
18574;SDS011;9417;16.484;102.872;2023-04-03T10:41:54;25.25;;;19.88;;
18574;SDS011;9417;16.484;102.872;2023-04-03T10:44:20;27.05;;;19.98;;
18574;SDS011;9417;16.484;102.872;2023-04-03T10:46:37;23.15;;;19.58;;
18574;SDS011;9417;16.484;102.872;2023-04-03T10:48:50;22.88;;;18.63;;
18574;SDS011;9417;16.484;102.872;2023-04-03T10:51:10;29.35;;;19.02;;
18574;SDS011;9417;16.484;102.872;2023-04-03T10:53:29;24.97;;;19.40;;
18574;SDS011;9417;16.484;102.872;2023-04-03T10:55:45;27.10;;;19.60;;
18574;SDS011;9417;16.484;102.872;2023-04-03T10:57:59;25.85;;;19.90;;
18574;SDS011;9417;16.484;102.872;2023-04-03T11:00:13;28.33;;;20.55;;
18574;SDS011;9417;16.484;102.872;2023-04-03T11:02:26;25.00;;;20.77;;
18574;SDS011;9417;16.484;102.872;2023-04-03T11:06:45;27.63;;;19.83;;
18574;SDS011;9417;16.484;102.872;2023-04-03T11:08:58;27.73;;;19.83;;
18574;SDS011;9417;16.484;102.872;2023-04-03T11:11:11;23.75;;;19.27;;
18574;SDS011;9417;16.484;102.872;2023-04-03T11:13:24;28.23;;;20.33;;
18574;SDS011;9417;16.484;102.872;2023-04-03T11:15:38;26.00;;;19.73;;
18574;SDS011;9417;16.484;102.872;2023-04-03T11:17:47;24.73;;;18.75;;
18574;SDS011;9417;16.484;102.872;2023-04-03T11:20:00;27.00;;;19.58;;
18574;SDS011;9417;16.484;102.872;2023-04-03T11:22:21;26.25;;;21.10;;
18574;SDS011;9417;16.484;102.872;2023-04-03T11:24:32;31.80;;;21.60;;
18574;SDS011;9417;16.484;102.872;2023-04-03T11:26:41;30.60;;;19.58;;
18574;SDS011;9417;16.484;102.872;2023-04-03T11:28:53;25.80;;;19.70;;
18574;SDS011;9417;16.484;102.872;2023-04-03T11:31:09;24.80;;;20.52;;
18574;SDS011;9417;16.484;102.872;2023-04-03T11:35:59;29.25;;;20.25;;
18574;SDS011;9417;16.484;102.872;2023-04-03T11:38:27;32.55;;;22.08;;
18574;SDS011;9417;16.484;102.872;2023-04-03T11:40:39;32.33;;;22.08;;
18574;SDS011;9417;16.484;102.872;2023-04-03T11:42:49;30.30;;;21.77;;
18574;SDS011;9417;16.484;102.872;2023-04-03T11:45:25;32.42;;;23.67;;
18574;SDS011;9417;16.484;102.872;2023-04-03T11:47:46;38.35;;;26.88;;
18574;SDS011;9417;16.484;102.872;2023-04-03T11:52:07;37.78;;;27.77;;
18574;SDS011;9417;16.484;102.872;2023-04-03T11:54:36;32.97;;;24.27;;
18574;SDS011;9417;16.484;102.872;2023-04-03T11:56:53;35.95;;;24.95;;
18574;SDS011;9417;16.484;102.872;2023-04-03T12:09:01;36.15;;;25.73;;
18574;SDS011;9417;16.484;102.872;2023-04-03T12:11:23;34.30;;;26.00;;
18574;SDS011;9417;16.484;102.872;2023-04-03T12:13:35;31.73;;;25.27;;
18574;SDS011;9417;16.484;102.872;2023-04-03T12:15:50;34.05;;;25.70;;
18574;SDS011;9417;16.484;102.872;2023-04-03T12:20:59;35.75;;;24.55;;
18574;SDS011;9417;16.484;102.872;2023-04-03T12:23:23;29.15;;;24.50;;
18574;SDS011;9417;16.484;102.872;2023-04-03T12:25:47;35.40;;;26.08;;
18574;SDS011;9417;16.484;102.872;2023-04-03T12:27:55;33.90;;;24.80;;
18574;SDS011;9417;16.484;102.872;2023-04-03T12:30:16;35.35;;;25.17;;
18574;SDS011;9417;16.484;102.872;2023-04-03T12:35:14;37.40;;;26.70;;
18574;SDS011;9417;16.484;102.872;2023-04-03T12:40:12;36.20;;;25.88;;
18574;SDS011;9417;16.484;102.872;2023-04-03T12:42:32;37.35;;;25.80;;
18574;SDS011;9417;16.484;102.872;2023-04-03T12:45:00;36.70;;;25.42;;
18574;SDS011;9417;16.484;102.872;2023-04-03T12:47:19;37.90;;;25.42;;
18574;SDS011;9417;16.484;102.872;2023-04-03T12:49:33;35.90;;;25.38;;
18574;SDS011;9417;16.484;102.872;2023-04-03T12:51:44;34.20;;;25.02;;
18574;SDS011;9417;16.484;102.872;2023-04-03T12:53:52;36.25;;;24.48;;
18574;SDS011;9417;16.484;102.872;2023-04-03T12:56:20;35.50;;;24.65;;
18574;SDS011;9417;16.484;102.872;2023-04-03T12:58:29;31.83;;;24.65;;
18574;SDS011;9417;16.484;102.872;2023-04-03T13:01:01;35.15;;;24.65;;
18574;SDS011;9417;16.484;102.872;2023-04-03T13:03:19;38.70;;;24.15;;
18574;SDS011;9417;16.484;102.872;2023-04-03T13:05:30;38.60;;;25.40;;